Aeroporto :
LOGIN :

Iscrizione | Disclaimer

   EN    FR    IT 

 










Sommario :    VFR   VFR Marginale   IFR   IFR Intensivo   IFR Molto Intensivo
Visibilità : 
Base nubi : 
>= 8 km
>= 3000ft
5 / 8 km
1000 / 3000 ft
1500m / 5 km
500 / 1000 ft
800 / 1500m
200 / 500 ft
< 800m
< 200 ft
Simboli :   Temporali  Nebbia  Neve Forte  Precipitazioni Forti  Vento > 20 kt
SIGMETs :   Varie  Temporali  Ghiacco  Turbolenza  Onda orograficha  Ceneri Vulcaniche






- Altitudine del aeroporto : 309 ft
- Codice IATA : FNI


LFTW - Nîmes Garons

ULTIMO METAR :
  • 270400Z AUTO 33012KT CAVOK 10/02 Q1006 NOSIG

METARs OBSOLETI :
  • 270330Z AUTO 34013KT CAVOK 10/02 Q1006 NOSIG
  • 270300Z AUTO 33010KT CAVOK 09/03 Q1006 NOSIG
  • 270230Z AUTO 32009KT 290V350 CAVOK 09/03 Q1005
  • 270200Z AUTO 32009KT CAVOK 09/03 Q1006
  • 270130Z AUTO 32009KT 290V350 CAVOK 10/03 Q1006

TAF TAF LFTW
Valido dal 27 a 03 ore il 28 a 03 ore UTC


270200Z 2703/2803 32010KT CAVOK
TEMPO 2712/2718 32015G28KT



MetMap, La meteo Aeronautica in un colpo d'occhio ! - Copyright ORBIFLY Dicembre 2007 - Disclaimer

ORBIFLY MET'MAP TEAM :

Programmazione e sviluppo : Alexandra Zaïnal
Concezione : Baudouin d'Aumeries
Aiuto per la programmazione : Marc-Olivier Méhu
Supporto tecnico e logistico : Manuel Goepfert
Aiuto per la traduzione : Arnaldo La Scala

Contatto : metmap@orbifly.com




FONTI E CREDITI :

   NOAA